createdAt,value
2022-10-22T00:01:03.551Z,0.68
2022-10-22T00:03:33.020Z,1.02
2022-10-22T00:06:00.988Z,1.58
2022-10-22T00:08:29.008Z,0.65
2022-10-22T00:10:57.061Z,0.90
2022-10-22T00:13:25.432Z,1.02
2022-10-22T00:15:53.544Z,1.10
2022-10-22T00:18:21.611Z,1.00
2022-10-22T00:20:51.064Z,1.20
2022-10-22T00:23:19.034Z,1.13
2022-10-22T00:25:47.031Z,1.10
2022-10-22T00:28:15.056Z,1.48
2022-10-22T00:30:43.156Z,1.85
2022-10-22T00:33:11.154Z,1.58
2022-10-22T00:35:39.404Z,1.70
2022-10-22T00:38:08.765Z,1.58
2022-10-22T00:40:36.765Z,1.50
2022-10-22T00:43:04.825Z,1.75
2022-10-22T00:45:32.965Z,1.52
2022-10-22T00:48:05.846Z,1.70
2022-10-22T00:50:37.187Z,1.70
2022-10-22T00:53:08.289Z,1.95
2022-10-22T00:55:38.839Z,2.13
2022-10-22T00:58:07.047Z,2.20
2022-10-22T01:00:35.059Z,1.83
2022-10-22T01:03:03.212Z,2.30
2022-10-22T01:05:34.289Z,2.42
2022-10-22T01:08:02.306Z,3.10
2022-10-22T01:10:47.511Z,2.60
2022-10-22T01:13:26.176Z,2.78
2022-10-22T01:16:00.960Z,3.38
2022-10-22T01:18:38.242Z,3.45
2022-10-22T01:21:16.726Z,4.15
2022-10-22T01:24:18.273Z,4.78
2022-10-22T01:27:01.485Z,6.60
2022-10-22T01:29:35.207Z,8.57
2022-10-22T01:32:09.369Z,11.07
2022-10-22T01:34:40.587Z,9.95
2022-10-22T01:37:11.781Z,15.57
2022-10-22T01:39:40.902Z,14.15
2022-10-22T01:42:08.981Z,16.27
2022-10-22T01:44:38.425Z,19.48
2022-10-22T01:47:18.955Z,18.23
2022-10-22T01:50:25.416Z,17.98
2022-10-22T01:53:18.748Z,16.50
2022-10-22T01:55:57.938Z,16.90
2022-10-22T01:58:40.428Z,16.40
2022-10-22T02:01:17.097Z,16.33
2022-10-22T02:03:52.643Z,13.93
2022-10-22T02:06:24.371Z,13.98
2022-10-22T02:08:54.729Z,14.00
2022-10-22T02:11:22.845Z,15.02
2022-10-22T02:13:54.397Z,14.20
2022-10-22T02:16:29.635Z,14.35
2022-10-22T02:19:01.864Z,14.48
2022-10-22T02:21:30.080Z,15.27
2022-10-22T02:23:58.033Z,14.88
2022-10-22T02:26:35.183Z,14.55
2022-10-22T02:29:12.285Z,14.70
2022-10-22T02:31:46.500Z,15.55
2022-10-22T02:34:18.802Z,15.30
2022-10-22T02:36:50.408Z,16.08
2022-10-22T02:39:19.838Z,15.85
2022-10-22T02:41:47.940Z,15.98
2022-10-22T02:44:16.033Z,16.42
2022-10-22T02:46:45.670Z,16.52
2022-10-22T02:49:13.677Z,16.13
2022-10-22T02:51:41.749Z,16.65
2022-10-22T02:54:09.725Z,17.08
2022-10-22T02:56:37.727Z,17.80
2022-10-22T02:59:05.698Z,16.52
2022-10-22T03:01:33.698Z,16.58
2022-10-22T03:04:03.129Z,16.70
2022-10-22T03:06:31.133Z,16.90
2022-10-22T03:08:59.411Z,17.00
2022-10-22T03:11:27.466Z,16.90
2022-10-22T03:13:55.405Z,18.85
2022-10-22T03:16:23.373Z,16.50
2022-10-22T03:18:51.343Z,17.27
2022-10-22T03:21:29.561Z,19.10
2022-10-22T03:23:57.998Z,19.25
2022-10-22T03:26:26.585Z,20.10
2022-10-22T03:28:55.770Z,20.17
2022-10-22T03:31:23.755Z,19.17
2022-10-22T03:33:51.721Z,18.13
2022-10-22T03:36:19.875Z,18.45
2022-10-22T03:38:49.626Z,16.67
2022-10-22T03:41:17.666Z,15.00
2022-10-22T03:43:49.793Z,14.63
2022-10-22T03:46:17.814Z,16.40
2022-10-22T03:48:45.812Z,18.10
2022-10-22T03:51:14.039Z,19.33
2022-10-22T03:53:42.013Z,17.88
2022-10-22T03:56:12.929Z,18.73
2022-10-22T03:58:42.429Z,19.65
2022-10-22T04:01:13.168Z,18.70
2022-10-22T04:03:41.528Z,19.65
2022-10-22T04:06:12.275Z,18.55
2022-10-22T04:08:41.645Z,21.77
2022-10-22T04:11:11.737Z,21.15
2022-10-22T04:13:39.955Z,20.65
2022-10-22T04:16:09.498Z,19.63
2022-10-22T04:18:37.649Z,21.27
2022-10-22T04:21:06.112Z,21.30
2022-10-22T04:23:34.165Z,19.40
2022-10-22T04:26:03.610Z,19.15
2022-10-22T04:28:33.100Z,19.10
2022-10-22T04:31:01.112Z,17.65
2022-10-22T04:33:29.044Z,17.25
2022-10-22T04:35:57.079Z,17.73
2022-10-22T04:38:25.097Z,17.45
2022-10-22T04:40:53.068Z,17.67
2022-10-22T04:43:21.019Z,16.35
2022-10-22T04:45:50.454Z,15.77
2022-10-22T04:48:18.417Z,14.27
2022-10-22T04:50:46.367Z,16.88
2022-10-22T04:53:14.305Z,16.05
2022-10-22T04:55:42.281Z,16.08
2022-10-22T04:58:10.256Z,15.45
2022-10-22T05:00:38.271Z,16.38
2022-10-22T05:03:07.672Z,17.65
2022-10-22T05:05:35.680Z,15.65
2022-10-22T05:08:03.656Z,17.30
2022-10-22T05:10:31.671Z,14.15
2022-10-22T05:12:59.663Z,11.95
2022-10-22T05:15:27.657Z,11.55
2022-10-22T05:17:55.590Z,12.85
2022-10-22T05:20:24.965Z,12.25
2022-10-22T05:22:52.902Z,13.00
2022-10-22T05:25:20.920Z,14.70
2022-10-22T05:27:50.968Z,13.75
2022-10-22T05:30:19.105Z,14.88
2022-10-22T05:32:47.307Z,17.95
2022-10-22T05:35:15.409Z,18.73
2022-10-22T05:37:44.739Z,17.63
2022-10-22T05:40:26.537Z,17.52
2022-10-22T05:43:00.405Z,16.20
2022-10-22T05:45:28.401Z,14.77
2022-10-22T05:47:56.362Z,15.77
2022-10-22T05:50:24.319Z,18.33
2022-10-22T05:52:53.675Z,17.70
2022-10-22T05:55:21.699Z,22.75
2022-10-22T05:57:50.337Z,22.50
2022-10-22T06:00:18.804Z,22.08
2022-10-22T06:02:51.624Z,25.48
2022-10-22T06:05:19.670Z,28.33
2022-10-22T06:07:48.069Z,25.20
2022-10-22T06:10:20.880Z,27.95
2022-10-22T06:12:49.756Z,27.13
2022-10-22T06:15:20.275Z,28.70
2022-10-22T06:17:48.963Z,27.25
2022-10-22T06:20:17.103Z,24.95
2022-10-22T06:22:45.091Z,27.10
2022-10-22T06:25:14.279Z,28.05
2022-10-22T06:27:43.647Z,26.85
2022-10-22T06:30:12.405Z,27.65
2022-10-22T06:32:41.578Z,18.20
2022-10-22T06:35:09.879Z,17.65
2022-10-22T06:37:38.035Z,20.65
2022-10-22T06:40:06.922Z,19.58
2022-10-22T06:42:34.938Z,18.45
2022-10-22T06:45:04.542Z,17.23
2022-10-22T06:47:33.613Z,19.33
2022-10-22T06:50:01.898Z,20.52
2022-10-22T06:52:30.041Z,23.17
2022-10-22T06:54:58.168Z,22.52
2022-10-22T06:57:26.551Z,24.05
2022-10-22T06:59:55.297Z,21.98
2022-10-22T07:02:27.410Z,24.17
2022-10-22T07:04:58.322Z,25.38
2022-10-22T07:07:27.285Z,23.65
2022-10-22T07:09:56.227Z,25.13
2022-10-22T07:12:24.265Z,25.23
2022-10-22T07:14:52.228Z,24.15
2022-10-22T07:17:20.383Z,19.00
2022-10-22T07:19:52.637Z,20.27
2022-10-22T07:22:20.859Z,21.75
2022-10-22T07:24:49.152Z,19.85
2022-10-22T07:27:17.507Z,17.55
2022-10-22T07:32:50.164Z,13.55
2022-10-22T07:35:20.204Z,6.75
2022-10-22T07:37:48.552Z,7.55
2022-10-22T07:43:28.288Z,9.63
2022-10-22T07:46:00.052Z,8.95
2022-10-22T07:48:29.033Z,7.20
2022-10-22T07:50:59.083Z,4.22
2022-10-22T07:53:59.378Z,2.65
2022-10-22T07:56:27.685Z,4.20
2022-10-22T07:58:56.045Z,3.63
2022-10-22T08:01:24.445Z,2.45
2022-10-22T08:04:11.224Z,2.05
2022-10-22T08:23:03.851Z,2.20
2022-10-22T08:27:58.802Z,1.98
2022-10-22T08:30:30.286Z,1.55
2022-10-22T08:33:01.939Z,1.30
2022-10-22T08:56:26.036Z,2.15
2022-10-22T08:59:28.409Z,1.75
2022-10-22T09:03:04.308Z,1.77
2022-10-22T09:05:40.949Z,1.40
2022-10-22T09:08:12.487Z,1.73
2022-10-22T09:10:47.599Z,1.35
2022-10-22T09:13:19.432Z,1.75
2022-10-22T09:15:50.562Z,1.88
2022-10-22T09:18:31.989Z,1.60
2022-10-22T09:21:04.488Z,1.77
2022-10-22T09:23:40.147Z,1.67
2022-10-22T09:26:15.032Z,1.35
2022-10-22T09:28:43.282Z,1.27
2022-10-22T09:31:13.724Z,1.20
2022-10-22T09:33:43.499Z,1.30
2022-10-22T09:36:15.370Z,2.08
2022-10-22T09:38:49.661Z,1.83
2022-10-22T09:41:20.906Z,1.30
2022-10-22T09:43:49.107Z,1.48
2022-10-22T09:46:20.071Z,1.40
2022-10-22T09:48:51.329Z,1.80
2022-10-22T09:51:22.069Z,1.67
2022-10-22T09:53:58.057Z,1.55
2022-10-22T09:56:30.351Z,1.35
2022-10-22T09:58:59.536Z,1.33
2022-10-22T10:01:29.890Z,1.30
2022-10-22T10:04:08.444Z,1.85
2022-10-22T10:06:39.271Z,1.52
2022-10-22T10:09:14.564Z,1.63
2022-10-22T10:11:49.487Z,1.95
2022-10-22T10:14:22.891Z,1.88
2022-10-22T10:17:04.302Z,1.58
2022-10-22T10:19:44.836Z,1.60
2022-10-22T10:22:32.122Z,1.52
2022-10-22T10:25:15.467Z,1.50
2022-10-22T10:27:50.535Z,2.17
2022-10-22T10:30:21.282Z,1.30
2022-10-22T10:33:00.737Z,1.50
2022-10-22T10:35:32.453Z,1.20
2022-10-22T10:38:19.951Z,1.65
2022-10-22T10:40:52.659Z,1.85
2022-10-22T10:43:30.943Z,1.60
2022-10-22T10:46:07.942Z,1.88
2022-10-22T10:48:50.682Z,2.10
2022-10-22T10:51:36.872Z,2.25
2022-10-22T10:54:23.135Z,1.95
2022-10-22T10:56:56.882Z,2.30
2022-10-22T11:02:17.694Z,1.50
2022-10-22T11:05:08.892Z,1.70
2022-10-22T11:07:43.211Z,1.67
2022-10-22T11:10:20.943Z,2.13
2022-10-22T11:12:52.515Z,2.03
2022-10-22T11:15:29.338Z,1.80
2022-10-22T11:18:04.146Z,1.90
2022-10-22T11:20:45.270Z,1.23
2022-10-22T11:23:19.870Z,1.85
2022-10-22T11:25:50.914Z,1.92
2022-10-22T11:28:25.612Z,1.85
2022-10-22T11:31:02.028Z,2.03
2022-10-22T11:33:39.087Z,1.73
2022-10-22T11:36:09.499Z,2.17
2022-10-22T11:38:38.302Z,1.60
2022-10-22T11:41:08.671Z,1.95
2022-10-22T11:43:57.299Z,1.77
2022-10-22T11:46:39.541Z,2.67
2022-10-22T11:49:20.152Z,2.17
2022-10-22T11:51:48.476Z,1.88
2022-10-22T11:54:33.209Z,1.85
2022-10-22T11:57:20.459Z,1.80
2022-10-22T11:59:53.817Z,1.77
2022-10-22T12:02:46.697Z,3.08
2022-10-22T12:05:37.970Z,2.13
2022-10-22T12:08:25.254Z,1.35
2022-10-22T12:11:07.458Z,1.50
2022-10-22T12:13:58.785Z,1.73
2022-10-22T12:16:44.116Z,1.58
2022-10-22T12:19:25.611Z,1.38
2022-10-22T12:21:55.868Z,1.77
2022-10-22T12:24:26.965Z,1.90
2022-10-22T12:26:54.978Z,1.30
2022-10-22T12:29:26.664Z,1.25
2022-10-22T12:31:55.137Z,1.40
2022-10-22T12:34:26.292Z,1.55
2022-10-22T12:36:55.365Z,1.20
2022-10-22T12:39:27.956Z,1.50
2022-10-22T12:41:56.348Z,1.02
2022-10-22T12:44:24.431Z,1.83
2022-10-22T12:46:56.052Z,1.17
2022-10-22T12:49:34.655Z,1.70
2022-10-22T12:52:08.676Z,1.55
2022-10-22T12:54:40.366Z,2.05
2022-10-22T12:57:14.606Z,1.50
2022-10-22T12:59:48.776Z,1.65
2022-10-22T13:02:22.710Z,1.02
2022-10-22T13:05:22.427Z,1.33
2022-10-22T13:07:53.320Z,1.42
2022-10-22T13:10:25.900Z,1.38
2022-10-22T13:12:57.837Z,1.30
2022-10-22T13:15:38.963Z,1.60
2022-10-22T13:18:17.044Z,1.08
2022-10-22T13:20:54.743Z,1.52
2022-10-22T13:23:24.463Z,1.05
2022-10-22T13:26:00.920Z,1.27
2022-10-22T13:28:30.136Z,1.20
2022-10-22T13:31:00.290Z,1.55
2022-10-22T13:33:31.879Z,1.05
2022-10-22T13:36:01.642Z,1.20
2022-10-22T13:38:30.323Z,0.88
2022-10-22T13:40:59.376Z,1.30
2022-10-22T13:43:27.865Z,1.02
2022-10-22T13:45:59.220Z,1.42
2022-10-22T13:48:29.539Z,1.10
2022-10-22T13:50:57.886Z,1.05
2022-10-22T13:53:29.295Z,1.20
2022-10-22T13:55:57.612Z,1.45
2022-10-22T13:58:26.172Z,0.88
2022-10-22T14:00:57.161Z,1.25
2022-10-22T14:03:29.621Z,1.48
2022-10-22T14:05:58.304Z,1.40
2022-10-22T14:08:29.147Z,1.52
2022-10-22T14:10:57.281Z,1.27
2022-10-22T14:13:26.716Z,0.73
2022-10-22T14:15:54.949Z,0.85
2022-10-22T14:18:27.476Z,0.52
2022-10-22T14:20:57.700Z,1.20
2022-10-22T14:23:28.682Z,1.10
2022-10-22T14:25:57.151Z,1.08
2022-10-22T14:28:25.111Z,0.85
2022-10-22T14:30:53.562Z,0.73
2022-10-22T14:33:28.885Z,1.00
2022-10-22T14:35:58.819Z,0.90
2022-10-22T14:38:28.403Z,0.90
2022-10-22T14:40:59.788Z,0.95
2022-10-22T14:43:31.288Z,1.20
2022-10-22T14:46:00.025Z,0.90
2022-10-22T14:48:28.266Z,0.75
2022-10-22T14:50:56.675Z,0.90
2022-10-22T14:53:24.865Z,0.80
2022-10-22T14:55:58.644Z,0.88
2022-10-22T14:58:27.268Z,1.10
2022-10-22T15:00:55.618Z,0.88
2022-10-22T15:03:23.852Z,1.02
2022-10-22T15:05:56.007Z,0.80
2022-10-22T15:08:24.262Z,1.02
2022-10-22T15:11:01.487Z,0.80
2022-10-22T15:13:30.506Z,1.10
2022-10-22T15:15:59.897Z,1.08
2022-10-22T15:18:28.891Z,1.05
2022-10-22T15:20:59.014Z,1.25
2022-10-22T15:23:27.430Z,0.90
2022-10-22T15:25:56.320Z,1.13
2022-10-22T15:28:43.886Z,1.23
2022-10-22T15:31:53.961Z,1.80
2022-10-22T15:34:30.389Z,1.20
2022-10-22T15:37:00.738Z,1.23
2022-10-22T15:39:29.515Z,1.30
2022-10-22T15:41:58.799Z,1.20
2022-10-22T15:44:37.638Z,1.50
2022-10-22T15:47:11.024Z,1.38
2022-10-22T15:49:44.005Z,1.10
2022-10-22T15:52:30.518Z,1.35
2022-10-22T15:55:31.533Z,1.20
2022-10-22T15:58:08.311Z,1.20
2022-10-22T16:00:40.568Z,1.67
2022-10-22T16:03:09.211Z,1.27
2022-10-22T16:05:54.607Z,1.38
2022-10-22T16:08:22.848Z,1.35
2022-10-22T16:10:51.071Z,1.40
2022-10-22T16:13:21.040Z,2.05
2022-10-22T16:15:50.666Z,1.60
2022-10-22T16:18:18.981Z,1.88
2022-10-22T16:20:47.443Z,1.45
2022-10-22T16:23:18.796Z,1.45
2022-10-22T16:25:47.187Z,1.42
2022-10-22T16:28:15.787Z,1.45
2022-10-22T16:30:43.859Z,1.35
2022-10-22T16:33:13.417Z,2.45
2022-10-22T16:35:42.699Z,1.08
2022-10-22T16:38:12.263Z,1.10
2022-10-22T16:40:42.239Z,1.23
2022-10-22T16:43:10.855Z,1.02
2022-10-22T16:45:39.318Z,1.40
2022-10-22T16:48:07.467Z,1.13
2022-10-22T16:50:40.211Z,1.05
2022-10-22T16:53:08.223Z,21.60
2022-10-22T16:55:37.334Z,1.38
2022-10-22T16:58:05.696Z,1.80
2022-10-22T17:00:34.344Z,1.10
2022-10-22T17:03:02.370Z,1.10
2022-10-22T17:05:31.946Z,1.92
2022-10-22T17:08:01.389Z,1.70
2022-10-22T17:10:29.509Z,2.13
2022-10-22T17:12:57.517Z,1.50
2022-10-22T17:15:25.546Z,1.33
2022-10-22T17:17:53.869Z,1.58
2022-10-22T17:20:21.918Z,1.65
2022-10-22T17:22:50.963Z,1.63
2022-10-22T17:25:25.602Z,1.50
2022-10-22T17:27:55.303Z,1.23
2022-10-22T17:30:27.250Z,1.83
2022-10-22T17:32:55.682Z,1.25
2022-10-22T17:35:23.993Z,1.35
2022-10-22T17:37:52.130Z,1.27
2022-10-22T17:40:21.784Z,1.50
2022-10-22T17:42:50.018Z,1.40
2022-10-22T17:45:18.290Z,1.52
2022-10-22T17:47:47.733Z,3.30
2022-10-22T17:50:15.985Z,3.50
2022-10-22T17:52:44.344Z,3.30
2022-10-22T17:55:13.677Z,2.55
2022-10-22T17:57:43.337Z,1.63
2022-10-22T18:00:16.196Z,1.65
2022-10-22T19:31:37.395Z,1.60
2022-10-22T19:34:21.534Z,1.30
2022-10-22T19:37:10.408Z,1.52
2022-10-22T20:44:48.969Z,2.28
2022-10-22T20:47:18.824Z,3.13
2022-10-22T20:49:55.988Z,2.97
2022-10-22T20:55:23.602Z,2.92
2022-10-22T20:57:52.039Z,2.35
2022-10-22T21:00:20.291Z,2.63
2022-10-22T21:03:01.939Z,2.35
2022-10-22T21:08:28.808Z,2.10
2022-10-22T21:14:38.885Z,1.98
2022-10-22T21:17:08.379Z,1.83
2022-10-22T21:19:38.134Z,2.00
2022-10-22T21:22:06.203Z,1.55
2022-10-22T21:24:34.250Z,2.30
2022-10-22T21:27:03.372Z,1.83
2022-10-22T21:29:32.361Z,2.13
2022-10-22T21:32:00.384Z,1.90
2022-10-22T21:34:29.889Z,2.05
2022-10-22T21:37:00.446Z,1.63
2022-10-22T21:39:30.328Z,1.65
2022-10-22T21:42:01.295Z,1.65
2022-10-22T21:44:33.298Z,1.95
2022-10-22T21:47:04.531Z,1.35
2022-10-22T21:49:41.176Z,1.98
2022-10-22T21:52:15.369Z,2.30
2022-10-22T21:54:45.432Z,1.50
2022-10-22T21:57:16.716Z,1.83
2022-10-22T21:59:45.318Z,1.77
2022-10-22T22:02:15.319Z,1.88
2022-10-22T22:04:46.817Z,1.60
2022-10-22T22:07:18.901Z,2.08
2022-10-22T22:09:50.174Z,1.73
2022-10-22T22:12:19.748Z,1.73
2022-10-22T22:14:50.114Z,1.88
2022-10-22T22:17:18.701Z,1.75
2022-10-22T22:19:50.245Z,1.85
2022-10-22T22:22:25.199Z,1.73
2022-10-22T22:24:59.217Z,1.55
2022-10-22T22:27:31.259Z,1.25
2022-10-22T22:29:59.340Z,1.63
2022-10-22T22:32:27.348Z,1.92
2022-10-22T22:34:55.307Z,1.95
2022-10-22T22:37:24.706Z,1.85
2022-10-22T22:39:52.708Z,1.92
2022-10-22T22:42:20.736Z,1.52
2022-10-22T22:44:48.744Z,1.83
2022-10-22T22:47:16.826Z,1.55
2022-10-22T22:49:44.851Z,1.70
2022-10-22T22:52:12.936Z,1.40
2022-10-22T22:54:42.334Z,1.92
2022-10-22T22:57:10.357Z,1.20
2022-10-22T22:59:38.349Z,1.50
2022-10-22T23:02:06.778Z,1.20
2022-10-22T23:04:35.003Z,1.50
2022-10-22T23:07:03.153Z,1.40
2022-10-22T23:09:31.223Z,1.50
2022-10-22T23:12:00.658Z,1.25
2022-10-22T23:14:28.659Z,1.20
2022-10-22T23:16:56.797Z,1.10
2022-10-22T23:19:25.290Z,1.10
2022-10-22T23:21:55.299Z,1.38
2022-10-22T23:24:25.658Z,1.42
2022-10-22T23:26:55.545Z,1.17
2022-10-22T23:29:27.379Z,1.33
2022-10-22T23:31:56.957Z,1.40
2022-10-22T23:34:26.372Z,1.52
2022-10-22T23:36:55.137Z,1.25
2022-10-22T23:39:25.410Z,1.60
2022-10-22T23:41:54.069Z,1.40
2022-10-22T23:44:22.944Z,1.90
2022-10-22T23:46:52.585Z,1.20
2022-10-22T23:49:20.651Z,1.77
2022-10-22T23:51:48.711Z,1.08
2022-10-22T23:54:18.784Z,1.73
2022-10-22T23:56:48.093Z,1.40
2022-10-22T23:59:16.528Z,1.50
